Time,TemperatureF,DewpointF,PressureIn,WindDirection,WindDirectionDegrees,WindSpeedMPH,WindSpeedGustMPH,Humidity,HourlyPrecipIn,Conditions,Clouds,dailyrainin,SoftwareType,DateUTC
2013-12-02 00:04:00,37.3,32.9,30.00,SW,227,0.0,0.0,84,0.00,,,0.04,Wunderground v.1.13,2013-12-02 05:04:00,
2013-12-02 00:09:00,37.3,32.9,30.00,SW,228,0.0,0.0,84,0.00,,,0.04,Wunderground v.1.13,2013-12-02 05:09:00,
2013-12-02 00:13:00,37.3,32.9,30.00,SW,228,0.0,0.0,84,0.00,,,0.04,Wunderground v.1.13,2013-12-02 05:13:00,
2013-12-02 00:23:00,37.2,32.8,30.00,SW,228,0.0,0.0,84,0.00,,,0.04,Wunderground v.1.13,2013-12-02 05:23:00,
2013-12-02 00:29:00,37.2,32.8,29.99,SW,227,0.0,0.0,84,0.00,,,0.04,Wunderground v.1.13,2013-12-02 05:29:00,
2013-12-02 00:34:00,37.2,32.8,29.99,SW,227,0.0,0.0,84,0.00,,,0.04,Wunderground v.1.13,2013-12-02 05:34:00,
2013-12-02 00:39:00,37.2,32.8,29.99,SW,228,0.0,0.0,84,0.00,,,0.04,Wunderground v.1.13,2013-12-02 05:39:00,
2013-12-02 00:48:00,37.1,32.7,29.99,SW,227,0.0,0.0,84,0.00,,,0.04,Wunderground v.1.13,2013-12-02 05:48:00,
2013-12-02 00:53:00,37.1,32.7,29.99,SW,227,0.0,0.0,84,0.00,,,0.04,Wunderground v.1.13,2013-12-02 05:53:00,
2013-12-02 01:04:00,37.1,32.7,29.98,SW,228,0.0,0.0,84,0.00,,,0.04,Wunderground v.1.13,2013-12-02 06:04:00,
2013-12-02 01:13:00,37.0,32.6,29.98,SW,228,0.0,0.0,84,0.00,,,0.04,Wunderground v.1.13,2013-12-02 06:13:00,
2013-12-02 01:24:00,37.0,32.6,29.98,SW,227,0.0,0.0,84,0.00,,,0.04,Wunderground v.1.13,2013-12-02 06:24:00,
2013-12-02 01:34:00,37.0,32.6,29.98,SW,227,0.0,0.0,84,0.00,,,0.04,Wunderground v.1.13,2013-12-02 06:34:00,
2013-12-02 01:43:00,37.0,32.6,29.98,SW,228,0.0,0.0,84,0.00,,,0.04,Wunderground v.1.13,2013-12-02 06:43:00,
2013-12-02 01:53:00,37.0,32.6,29.98,SW,228,0.0,0.0,84,0.00,,,0.04,Wunderground v.1.13,2013-12-02 06:53:00,
2013-12-02 01:59:00,37.0,32.6,29.98,SW,228,0.0,0.0,84,0.00,,,0.04,Wunderground v.1.13,2013-12-02 06:59:00,
2013-12-02 02:04:00,37.1,33.0,29.97,SW,228,0.0,0.0,85,0.00,,,0.04,Wunderground v.1.13,2013-12-02 07:04:00,
2013-12-02 02:13:00,36.9,32.8,29.97,SW,228,0.0,2.0,85,0.00,,,0.04,Wunderground v.1.13,2013-12-02 07:13:00,
2013-12-02 02:23:00,36.9,32.5,29.97,SW,228,0.0,0.0,84,0.00,,,0.04,Wunderground v.1.13,2013-12-02 07:23:00,
2013-12-02 02:29:00,36.9,32.8,29.97,SW,228,0.0,0.0,85,0.00,,,0.04,Wunderground v.1.13,2013-12-02 07:29:00,
2013-12-02 02:39:00,36.8,32.4,29.97,SW,228,0.0,0.0,84,0.00,,,0.04,Wunderground v.1.13,2013-12-02 07:39:00,
2013-12-02 02:48:00,36.7,32.3,29.97,SW,228,0.0,0.0,84,0.00,,,0.04,Wunderground v.1.13,2013-12-02 07:48:00,
2013-12-02 02:59:00,36.6,32.5,29.96,SW,227,0.0,0.0,85,0.00,,,0.04,Wunderground v.1.13,2013-12-02 07:59:00,
2013-12-02 03:04:00,36.6,32.5,29.96,SW,227,0.0,0.0,85,0.00,,,0.04,Wunderground v.1.13,2013-12-02 08:04:00,
2013-12-02 03:13:00,36.4,32.3,29.96,SW,228,0.0,0.0,85,0.00,,,0.04,Wunderground v.1.13,2013-12-02 08:13:00,
2013-12-02 03:24:00,36.4,32.3,29.96,SW,228,0.0,0.0,85,0.00,,,0.04,Wunderground v.1.13,2013-12-02 08:24:00,
2013-12-02 03:34:00,36.1,32.0,29.95,SW,228,0.0,0.0,85,0.00,,,0.04,Wunderground v.1.13,2013-12-02 08:34:00,
2013-12-02 03:43:00,35.9,31.8,29.95,SW,228,0.0,0.0,85,0.00,,,0.04,Wunderground v.1.13,2013-12-02 08:43:00,
2013-12-02 03:53:00,35.7,31.6,29.95,SW,228,0.0,0.0,85,0.00,,,0.05,Wunderground v.1.13,2013-12-02 08:53:00,
2013-12-02 03:59:00,35.6,31.5,29.95,SW,228,0.0,0.0,85,0.00,,,0.05,Wunderground v.1.13,2013-12-02 08:59:00,
2013-12-02 04:04:00,35.6,31.5,29.95,SW,228,0.0,0.0,85,0.00,,,0.05,Wunderground v.1.13,2013-12-02 09:04:00,
2013-12-02 04:13:00,35.5,31.4,29.94,SW,228,0.0,0.0,85,0.00,,,0.05,Wunderground v.1.13,2013-12-02 09:13:00,
2013-12-02 04:23:00,35.3,31.2,29.94,SW,228,0.0,0.0,85,0.00,,,0.05,Wunderground v.1.13,2013-12-02 09:23:00,
2013-12-02 04:33:00,35.3,31.2,29.94,SW,228,0.0,0.0,85,0.00,,,0.05,Wunderground v.1.13,2013-12-02 09:33:00,
2013-12-02 04:39:00,35.3,31.2,29.94,SW,228,0.0,0.0,85,0.00,,,0.05,Wunderground v.1.13,2013-12-02 09:39:00,
2013-12-02 04:49:00,35.4,31.3,29.93,SW,228,0.0,0.0,85,0.00,,,0.05,Wunderground v.1.13,2013-12-02 09:49:00,
2013-12-02 04:58:00,35.4,31.3,29.93,SW,227,0.0,0.0,85,0.00,,,0.05,Wunderground v.1.13,2013-12-02 09:58:00,
2013-12-02 05:04:00,35.4,31.3,29.93,SW,228,0.0,0.0,85,0.00,,,0.05,Wunderground v.1.13,2013-12-02 10:04:00,
2013-12-02 05:14:00,35.5,31.7,29.93,SW,228,0.0,0.0,86,0.00,,,0.05,Wunderground v.1.13,2013-12-02 10:14:00,
2013-12-02 05:19:00,35.5,31.7,29.93,SW,228,0.0,0.0,86,0.00,,,0.05,Wunderground v.1.13,2013-12-02 10:19:00,
2013-12-02 05:28:00,35.5,31.7,29.93,SW,228,0.0,0.0,86,0.00,,,0.05,Wunderground v.1.13,2013-12-02 10:28:00,
2013-12-02 05:38:00,35.5,31.7,29.93,SW,227,0.0,0.0,86,0.00,,,0.05,Wunderground v.1.13,2013-12-02 10:38:00,
2013-12-02 05:49:00,35.5,31.7,29.93,SW,228,0.0,0.0,86,0.00,,,0.05,Wunderground v.1.13,2013-12-02 10:49:00,
2013-12-02 05:59:00,35.4,31.6,29.93,SW,227,0.0,0.0,86,0.00,,,0.05,Wunderground v.1.13,2013-12-02 10:59:00,
2013-12-02 06:04:00,35.5,31.7,29.93,SW,228,0.0,0.0,86,0.00,,,0.05,Wunderground v.1.13,2013-12-02 11:04:00,
2013-12-02 06:14:00,35.4,31.9,29.93,SW,228,0.0,0.0,87,0.00,,,0.05,Wunderground v.1.13,2013-12-02 11:14:00,
2013-12-02 06:24:00,35.3,31.8,29.94,SW,228,0.0,0.0,87,0.00,,,0.05,Wunderground v.1.13,2013-12-02 11:24:00,
2013-12-02 06:33:00,35.2,31.7,29.94,SW,228,0.0,0.0,87,0.00,,,0.05,Wunderground v.1.13,2013-12-02 11:33:00,
2013-12-02 06:43:00,35.3,31.8,29.94,SW,227,0.0,0.0,87,0.00,,,0.05,Wunderground v.1.13,2013-12-02 11:43:00,
2013-12-02 06:53:00,35.2,31.7,29.94,SW,227,0.0,0.0,87,0.00,,,0.00,Wunderground v.1.13,2013-12-02 11:53:00,
2013-12-02 06:59:00,35.2,31.7,29.93,SW,228,0.0,0.0,87,0.00,,,0.00,Wunderground v.1.13,2013-12-02 11:59:00,
2013-12-02 07:04:00,35.1,31.6,29.93,SW,228,0.0,0.0,87,0.00,,,0.00,Wunderground v.1.13,2013-12-02 12:04:00,
2013-12-02 07:13:00,35.1,31.6,29.94,SW,228,0.0,0.0,87,0.00,,,0.00,Wunderground v.1.13,2013-12-02 12:13:00,
2013-12-02 07:19:00,35.0,31.5,29.94,SW,227,0.0,0.0,87,0.00,,,0.00,Wunderground v.1.13,2013-12-02 12:19:00,
2013-12-02 07:29:00,34.9,31.4,29.93,SW,227,0.0,0.0,87,0.00,,,0.00,Wunderground v.1.13,2013-12-02 12:29:00,
2013-12-02 07:38:00,34.8,31.3,29.93,SW,228,0.0,0.0,87,0.00,,,0.00,Wunderground v.1.13,2013-12-02 12:38:00,
2013-12-02 07:43:00,34.7,31.2,29.93,SW,227,0.0,0.0,87,0.00,,,0.00,Wunderground v.1.13,2013-12-02 12:43:00,
2013-12-02 07:49:00,34.7,31.2,29.93,SW,228,0.0,0.0,87,0.00,,,0.00,Wunderground v.1.13,2013-12-02 12:49:00,
2013-12-02 07:58:00,34.9,31.4,29.93,SW,228,0.0,0.0,87,0.00,,,0.00,Wunderground v.1.13,2013-12-02 12:58:00,
2013-12-02 08:04:00,35.1,31.9,29.93,SW,227,0.0,1.0,88,0.00,,,0.00,Wunderground v.1.13,2013-12-02 13:04:00,
2013-12-02 08:14:00,35.2,32.0,29.93,SW,228,0.0,0.0,88,0.00,,,0.00,Wunderground v.1.13,2013-12-02 13:14:00,
2013-12-02 08:23:00,35.2,32.0,29.93,SW,228,0.0,0.0,88,0.00,,,0.00,Wunderground v.1.13,2013-12-02 13:23:00,
2013-12-02 08:33:00,35.5,32.3,29.93,SW,228,0.0,1.0,88,0.00,,,0.00,Wunderground v.1.13,2013-12-02 13:33:00,
2013-12-02 08:39:00,36.0,32.8,29.93,SW,228,0.0,1.0,88,0.00,,,0.00,Wunderground v.1.13,2013-12-02 13:39:00,
2013-12-02 08:48:00,36.2,33.0,29.93,SW,227,0.0,0.0,88,0.00,,,0.00,Wunderground v.1.13,2013-12-02 13:48:00,
2013-12-02 08:58:00,36.2,32.7,29.93,SW,227,0.0,0.0,87,0.00,,,0.00,Wunderground v.1.13,2013-12-02 13:58:00,
2013-12-02 09:04:00,36.4,32.9,29.93,SW,228,0.0,0.0,87,0.00,,,0.00,Wunderground v.1.13,2013-12-02 14:04:00,
2013-12-02 09:14:00,36.8,33.6,29.93,SW,228,0.0,0.0,88,0.00,,,0.00,Wunderground v.1.13,2013-12-02 14:14:00,
2013-12-02 09:23:00,37.2,34.0,29.93,SW,228,0.0,0.0,88,0.00,,,0.00,Wunderground v.1.13,2013-12-02 14:23:00,
2013-12-02 09:29:00,37.4,33.9,29.93,SW,227,0.0,0.0,87,0.00,,,0.00,Wunderground v.1.13,2013-12-02 14:29:00,
2013-12-02 09:38:00,37.8,34.3,29.93,SW,227,0.0,0.0,87,0.00,,,0.00,Wunderground v.1.13,2013-12-02 14:38:00,
2013-12-02 09:48:00,38.3,34.2,29.93,SW,226,0.0,1.0,85,0.00,,,0.00,Wunderground v.1.13,2013-12-02 14:48:00,
2013-12-02 09:54:00,38.5,34.4,29.93,SW,226,0.0,0.0,85,0.00,,,0.00,Wunderground v.1.13,2013-12-02 14:54:00,
2013-12-02 10:04:00,39.0,34.6,29.93,SW,226,0.0,0.0,84,0.00,,,0.00,Wunderground v.1.13,2013-12-02 15:04:00,
2013-12-02 10:14:00,39.3,34.9,29.93,SW,226,0.0,0.0,84,0.00,,,0.00,Wunderground v.1.13,2013-12-02 15:14:00,
2013-12-02 10:23:00,39.6,34.9,29.93,SW,226,0.0,0.0,83,0.00,,,0.00,Wunderground v.1.13,2013-12-02 15:23:00,
2013-12-02 10:29:00,39.8,35.1,29.93,SW,226,0.0,1.0,83,0.00,,,0.00,Wunderground v.1.13,2013-12-02 15:29:00,
2013-12-02 10:38:00,40.3,35.2,29.92,SW,226,0.0,0.0,82,0.00,,,0.00,Wunderground v.1.13,2013-12-02 15:38:00,
2013-12-02 10:49:00,41.1,35.1,29.92,SW,226,0.0,2.0,79,0.00,,,0.00,Wunderground v.1.13,2013-12-02 15:49:00,
2013-12-02 10:58:00,41.8,34.5,29.91,SSW,213,0.0,2.0,75,0.00,,,0.00,Wunderground v.1.13,2013-12-02 15:58:00,
2013-12-02 11:04:00,42.1,34.4,29.91,SSW,213,1.0,1.0,74,0.00,,,0.00,Wunderground v.1.13,2013-12-02 16:04:00,
2013-12-02 11:14:00,42.9,34.8,29.90,SSW,209,1.0,1.0,73,0.00,,,0.00,Wunderground v.1.13,2013-12-02 16:14:00,
2013-12-02 11:23:00,43.8,35.7,29.90,SSW,209,0.0,2.0,73,0.00,,,0.00,Wunderground v.1.13,2013-12-02 16:23:00,
2013-12-02 11:34:00,44.6,36.1,29.89,SSE,162,1.0,1.0,72,0.00,,,0.00,Wunderground v.1.13,2013-12-02 16:34:00,
2013-12-02 11:43:00,45.0,36.5,29.88,SSE,161,0.0,1.0,72,0.00,,,0.00,Wunderground v.1.13,2013-12-02 16:43:00,
2013-12-02 11:54:00,45.9,37.0,29.88,South,178,0.0,2.0,71,0.00,,,0.00,Wunderground v.1.13,2013-12-02 16:54:00,
2013-12-02 12:04:00,46.8,36.8,29.88,WSW,237,1.0,1.0,68,0.00,,,0.00,Wunderground v.1.13,2013-12-02 17:04:00,
2013-12-02 12:14:00,47.7,37.3,29.87,South,179,1.0,1.0,67,0.00,,,0.00,Wunderground v.1.13,2013-12-02 17:14:00,
2013-12-02 12:23:00,47.6,36.8,29.87,WNW,294,3.0,3.0,66,0.00,,,0.00,Wunderground v.1.13,2013-12-02 17:23:00,
2013-12-02 12:33:00,47.8,37.4,29.86,WNW,295,2.0,6.0,67,0.00,,,0.00,Wunderground v.1.13,2013-12-02 17:33:00,
2013-12-02 12:39:00,47.8,37.0,29.86,WSW,238,2.0,3.0,66,0.00,,,0.00,Wunderground v.1.13,2013-12-02 17:39:00,
2013-12-02 12:48:00,48.2,37.4,29.86,SSW,211,2.0,5.0,66,0.00,,,0.00,Wunderground v.1.13,2013-12-02 17:48:00,
2013-12-02 12:59:00,49.2,37.9,29.86,South,184,1.0,1.0,65,0.00,,,0.00,Wunderground v.1.13,2013-12-02 17:59:00,
2013-12-02 13:04:00,49.1,37.4,29.85,West,271,2.0,6.0,64,0.00,,,0.00,Wunderground v.1.13,2013-12-02 18:04:00,
2013-12-02 13:13:00,49.6,37.9,29.85,SSE,153,2.0,2.0,64,0.00,,,0.00,Wunderground v.1.13,2013-12-02 18:13:00,
2013-12-02 13:23:00,49.9,38.2,29.85,West,264,1.0,5.0,64,0.00,,,0.00,Wunderground v.1.13,2013-12-02 18:23:00,
2013-12-02 13:29:00,50.1,38.4,29.84,South,171,1.0,3.0,64,0.00,,,0.00,Wunderground v.1.13,2013-12-02 18:29:00,
2013-12-02 13:38:00,50.3,38.6,29.84,SW,218,2.0,2.0,64,0.00,,,0.00,Wunderground v.1.13,2013-12-02 18:38:00,
2013-12-02 13:48:00,50.9,38.7,29.84,SW,219,1.0,1.0,63,0.00,,,0.00,Wunderground v.1.13,2013-12-02 18:48:00,
2013-12-02 13:54:00,51.5,39.7,29.84,SW,225,1.0,6.0,64,0.00,,,0.00,Wunderground v.1.13,2013-12-02 18:54:00,
2013-12-02 14:04:00,51.2,39.0,29.83,WSW,250,3.0,8.0,63,0.00,,,0.00,Wunderground v.1.13,2013-12-02 19:04:00,
2013-12-02 14:13:00,51.6,39.0,29.83,SSW,207,3.0,7.0,62,0.00,,,0.00,Wunderground v.1.13,2013-12-02 19:13:00,
2013-12-02 14:18:00,51.5,38.9,29.83,WSW,246,3.0,8.0,62,0.00,,,0.00,Wunderground v.1.13,2013-12-02 19:18:00,
2013-12-02 14:24:00,51.4,38.8,29.83,West,271,3.0,3.0,62,0.00,,,0.00,Wunderground v.1.13,2013-12-02 19:24:00,
2013-12-02 14:33:00,51.2,38.6,29.84,West,279,3.0,5.0,62,0.00,,,0.00,Wunderground v.1.13,2013-12-02 19:33:00,
2013-12-02 14:43:00,50.6,38.5,29.84,SW,235,3.0,5.0,63,0.00,,,0.00,Wunderground v.1.13,2013-12-02 19:43:00,
2013-12-02 14:49:00,50.5,38.8,29.84,SW,232,3.0,3.0,64,0.00,,,0.00,Wunderground v.1.13,2013-12-02 19:49:00,
2013-12-02 14:59:00,50.4,39.1,29.84,SW,234,1.0,4.0,65,0.00,,,0.00,Wunderground v.1.13,2013-12-02 19:59:00,
2013-12-02 15:04:00,50.3,38.6,29.84,SW,234,1.0,1.0,64,0.00,,,0.00,Wunderground v.1.13,2013-12-02 20:04:00,
2013-12-02 15:13:00,50.3,38.6,29.84,East,99,1.0,5.0,64,0.00,,,0.00,Wunderground v.1.13,2013-12-02 20:13:00,
2013-12-02 15:19:00,50.0,38.3,29.84,East,96,1.0,7.0,64,0.00,,,0.00,Wunderground v.1.13,2013-12-02 20:19:00,
2013-12-02 15:28:00,49.5,38.6,29.84,SE,146,1.0,1.0,66,0.00,,,0.00,Wunderground v.1.13,2013-12-02 20:28:00,
2013-12-02 15:38:00,49.2,38.3,29.84,South,170,1.0,5.0,66,0.00,,,0.00,Wunderground v.1.13,2013-12-02 20:38:00,
2013-12-02 15:44:00,49.1,38.2,29.84,South,173,1.0,1.0,66,0.00,,,0.00,Wunderground v.1.13,2013-12-02 20:44:00,
2013-12-02 15:54:00,48.8,38.3,29.84,South,173,0.0,1.0,67,0.00,,,0.00,Wunderground v.1.13,2013-12-02 20:54:00,
2013-12-02 16:04:00,48.7,38.2,29.84,South,173,0.0,1.0,67,0.00,,,0.00,Wunderground v.1.13,2013-12-02 21:04:00,
2013-12-02 16:14:00,48.6,38.1,29.84,South,174,0.0,1.0,67,0.00,,,0.00,Wunderground v.1.13,2013-12-02 21:14:00,
2013-12-02 16:24:00,48.5,38.0,29.84,South,173,0.0,2.0,67,0.00,,,0.00,Wunderground v.1.13,2013-12-02 21:24:00,
2013-12-02 16:33:00,48.3,37.8,29.84,South,174,0.0,2.0,67,0.00,,,0.00,Wunderground v.1.13,2013-12-02 21:33:00,
2013-12-02 16:43:00,48.0,37.9,29.84,South,174,0.0,0.0,68,0.00,,,0.00,Wunderground v.1.13,2013-12-02 21:43:00,
2013-12-02 16:48:00,47.7,37.7,29.84,South,173,0.0,0.0,68,0.00,,,0.00,Wunderground v.1.13,2013-12-02 21:48:00,
2013-12-02 16:54:00,47.4,37.7,29.84,South,174,0.0,0.0,69,0.00,,,0.00,Wunderground v.1.13,2013-12-02 21:54:00,
2013-12-02 17:04:00,46.8,37.5,29.84,South,174,0.0,1.0,70,0.00,,,0.00,Wunderground v.1.13,2013-12-02 22:04:00,
2013-12-02 17:13:00,46.4,37.5,29.85,South,173,0.0,1.0,71,0.00,,,0.00,Wunderground v.1.13,2013-12-02 22:13:00,
2013-12-02 17:19:00,46.2,37.3,29.85,South,173,0.0,1.0,71,0.00,,,0.00,Wunderground v.1.13,2013-12-02 22:19:00,
2013-12-02 17:28:00,46.0,37.1,29.85,South,173,0.0,1.0,71,0.00,,,0.00,Wunderground v.1.13,2013-12-02 22:28:00,
2013-12-02 17:38:00,45.9,37.0,29.85,South,174,0.0,1.0,71,0.00,,,0.00,Wunderground v.1.13,2013-12-02 22:38:00,
2013-12-02 17:49:00,45.6,37.1,29.85,South,174,0.0,0.0,72,0.00,,,0.00,Wunderground v.1.13,2013-12-02 22:49:00,
2013-12-02 17:58:00,45.4,36.9,29.85,South,174,0.0,1.0,72,0.00,,,0.00,Wunderground v.1.13,2013-12-02 22:58:00,
2013-12-02 18:04:00,45.3,37.2,29.86,South,174,0.0,0.0,73,0.00,,,0.00,Wunderground v.1.13,2013-12-02 23:04:00,
2013-12-02 18:14:00,45.1,37.0,29.85,South,173,0.0,0.0,73,0.00,,,0.00,Wunderground v.1.13,2013-12-02 23:14:00,
2013-12-02 18:23:00,44.9,37.1,29.86,South,174,0.0,1.0,74,0.00,,,0.00,Wunderground v.1.13,2013-12-02 23:23:00,
2013-12-02 18:33:00,44.6,37.2,29.85,South,174,0.0,2.0,75,0.00,,,0.00,Wunderground v.1.13,2013-12-02 23:33:00,
2013-12-02 18:39:00,44.4,37.0,29.85,South,174,0.0,1.0,75,0.00,,,0.00,Wunderground v.1.13,2013-12-02 23:39:00,
2013-12-02 18:48:00,44.4,36.6,29.86,South,173,1.0,3.0,74,0.00,,,0.00,Wunderground v.1.13,2013-12-02 23:48:00,
2013-12-02 18:58:00,44.2,36.8,29.86,South,174,0.0,2.0,75,0.00,,,0.00,Wunderground v.1.13,2013-12-02 23:58:00,
2013-12-02 19:04:00,44.0,36.6,29.86,South,173,0.0,1.0,75,0.00,,,0.00,Wunderground v.1.13,2013-12-03 00:04:00,
2013-12-02 19:14:00,43.9,36.8,29.86,South,173,0.0,1.0,76,0.00,,,0.00,Wunderground v.1.13,2013-12-03 00:14:00,
2013-12-02 19:23:00,43.6,36.5,29.86,South,174,1.0,1.0,76,0.00,,,0.01,Wunderground v.1.13,2013-12-03 00:23:00,
2013-12-02 19:33:00,43.4,36.3,29.86,South,173,0.0,1.0,76,0.00,,,0.01,Wunderground v.1.13,2013-12-03 00:33:00,
2013-12-02 19:38:00,43.3,36.2,29.86,WNW,290,0.0,1.0,76,0.00,,,0.01,Wunderground v.1.13,2013-12-03 00:38:00,
2013-12-02 19:44:00,43.1,36.0,29.86,WNW,290,1.0,1.0,76,0.00,,,0.01,Wunderground v.1.13,2013-12-03 00:44:00,
2013-12-02 19:54:00,43.0,36.3,29.86,WNW,290,0.0,2.0,77,0.00,,,0.01,Wunderground v.1.13,2013-12-03 00:54:00,
2013-12-02 20:09:00,42.6,35.9,29.86,WNW,290,0.0,2.0,77,0.00,,,0.01,Wunderground v.1.13,2013-12-03 01:09:00,
2013-12-02 20:18:00,42.5,36.4,29.86,WNW,290,0.0,0.0,79,0.00,,,0.01,Wunderground v.1.13,2013-12-03 01:18:00,
2013-12-02 20:28:00,42.2,36.2,29.87,WNW,290,0.0,1.0,79,0.00,,,0.01,Wunderground v.1.13,2013-12-03 01:28:00,
2013-12-02 20:34:00,42.1,36.1,29.87,WNW,290,0.0,0.0,79,0.00,,,0.01,Wunderground v.1.13,2013-12-03 01:34:00,
2013-12-02 20:44:00,42.0,36.0,29.87,WNW,290,0.0,0.0,79,0.00,,,0.01,Wunderground v.1.13,2013-12-03 01:44:00,
2013-12-02 20:53:00,42.0,36.0,29.87,WNW,290,0.0,1.0,79,0.00,,,0.01,Wunderground v.1.13,2013-12-03 01:53:00,
2013-12-02 21:04:00,41.9,36.2,29.87,WNW,290,0.0,1.0,80,0.00,,,0.01,Wunderground v.1.13,2013-12-03 02:04:00,
2013-12-02 21:14:00,41.7,36.3,29.87,WNW,290,0.0,0.0,81,0.00,,,0.01,Wunderground v.1.13,2013-12-03 02:14:00,
2013-12-02 21:19:00,41.6,36.2,29.87,WNW,290,0.0,0.0,81,0.00,,,0.01,Wunderground v.1.13,2013-12-03 02:19:00,
2013-12-02 21:28:00,41.5,36.7,29.87,WNW,290,0.0,0.0,83,0.00,,,0.01,Wunderground v.1.13,2013-12-03 02:28:00,
2013-12-02 21:38:00,41.2,36.4,29.87,WNW,290,0.0,0.0,83,0.00,,,0.01,Wunderground v.1.13,2013-12-03 02:38:00,
2013-12-02 21:49:00,41.0,36.2,29.87,WNW,290,0.0,0.0,83,0.00,,,0.01,Wunderground v.1.13,2013-12-03 02:49:00,
2013-12-02 21:54:00,41.0,36.5,29.87,WNW,290,0.0,0.0,84,0.00,,,0.01,Wunderground v.1.13,2013-12-03 02:54:00,
2013-12-02 22:04:00,40.7,36.5,29.87,WNW,290,0.0,0.0,85,0.00,,,0.01,Wunderground v.1.13,2013-12-03 03:04:00,
2013-12-02 22:13:00,40.5,36.3,29.87,WNW,290,0.0,0.0,85,0.00,,,0.01,Wunderground v.1.13,2013-12-03 03:13:00,
2013-12-02 22:18:00,40.5,36.3,29.87,WNW,290,0.0,0.0,85,0.00,,,0.01,Wunderground v.1.13,2013-12-03 03:18:00,
2013-12-02 22:24:00,40.3,36.4,29.87,WNW,290,0.0,0.0,86,0.00,,,0.01,Wunderground v.1.13,2013-12-03 03:24:00,
2013-12-02 22:33:00,40.1,36.5,29.87,WNW,290,0.0,0.0,87,0.00,,,0.01,Wunderground v.1.13,2013-12-03 03:33:00,
2013-12-02 22:43:00,39.8,36.2,29.87,WNW,290,0.0,1.0,87,0.00,,,0.01,Wunderground v.1.13,2013-12-03 03:43:00,
2013-12-02 22:49:00,39.7,36.1,29.87,WNW,290,0.0,0.0,87,0.00,,,0.01,Wunderground v.1.13,2013-12-03 03:49:00,
2013-12-02 22:59:00,39.7,36.1,29.87,WNW,290,0.0,0.0,87,0.00,,,0.01,Wunderground v.1.13,2013-12-03 03:59:00,
2013-12-02 23:04:00,39.6,36.0,29.87,WNW,290,0.0,0.0,87,0.00,,,0.01,Wunderground v.1.13,2013-12-03 04:04:00,
2013-12-02 23:13:00,39.5,36.0,29.87,WNW,290,0.0,0.0,87,0.00,,,0.01,Wunderground v.1.13,2013-12-03 04:13:00,
2013-12-02 23:19:00,39.4,35.9,29.87,WNW,290,0.0,0.0,87,0.00,,,0.01,Wunderground v.1.13,2013-12-03 04:19:00,
2013-12-02 23:29:00,39.3,35.8,29.87,WNW,290,0.0,0.0,87,0.00,,,0.01,Wunderground v.1.13,2013-12-03 04:29:00,
2013-12-02 23:39:00,39.2,35.9,29.87,WNW,290,0.0,0.0,88,0.00,,,0.01,Wunderground v.1.13,2013-12-03 04:39:00,
2013-12-02 23:48:00,39.1,35.8,29.87,WNW,290,0.0,0.0,88,0.00,,,0.01,Wunderground v.1.13,2013-12-03 04:48:00,
2013-12-02 23:58:00,39.1,35.8,29.86,WNW,290,0.0,0.0,88,0.00,,,0.01,Wunderground v.1.13,2013-12-03 04:58:00,